createdAt,value
2022-09-30T00:01:25.643Z,25.66
2022-09-30T00:04:16.151Z,25.66
2022-09-30T00:07:06.020Z,25.67
2022-09-30T00:09:54.485Z,25.66
2022-09-30T00:12:44.297Z,25.66
2022-09-30T00:15:33.155Z,25.62
2022-09-30T00:18:21.532Z,25.61
2022-09-30T00:21:10.353Z,25.59
2022-09-30T00:23:58.883Z,25.61
2022-09-30T00:26:47.396Z,25.62
2022-09-30T00:29:37.236Z,25.60
2022-09-30T00:32:27.065Z,25.64
2022-09-30T00:35:20.468Z,25.63
2022-09-30T00:38:10.897Z,25.62
2022-09-30T00:41:00.041Z,25.65
2022-09-30T00:43:53.572Z,25.63
2022-09-30T00:46:45.136Z,25.65
2022-09-30T00:49:33.737Z,25.63
2022-09-30T00:52:22.247Z,25.63
2022-09-30T00:55:21.822Z,25.61
2022-09-30T00:58:11.673Z,25.62
2022-09-30T01:01:02.766Z,25.62
2022-09-30T01:03:55.161Z,25.60
2022-09-30T01:06:44.331Z,25.62
2022-09-30T01:09:33.608Z,25.60
2022-09-30T01:12:25.909Z,25.62
2022-09-30T01:15:14.597Z,25.62
2022-09-30T01:18:06.777Z,25.63
2022-09-30T01:21:10.657Z,25.62
2022-09-30T01:24:31.607Z,25.61
2022-09-30T01:27:49.406Z,25.58
2022-09-30T01:30:57.187Z,25.59
2022-09-30T01:33:50.635Z,25.61
2022-09-30T01:36:50.282Z,25.61
2022-09-30T01:39:46.399Z,25.59
2022-09-30T01:42:40.443Z,25.61
2022-09-30T01:45:34.141Z,25.61
2022-09-30T01:48:27.072Z,25.60
2022-09-30T01:51:19.665Z,25.59
2022-09-30T01:54:12.786Z,25.60
2022-09-30T01:57:05.307Z,25.61
2022-09-30T01:59:58.744Z,25.61
2022-09-30T02:02:50.287Z,25.59
2022-09-30T02:05:45.347Z,25.62
2022-09-30T02:08:39.232Z,25.63
2022-09-30T02:11:29.851Z,25.61
2022-09-30T02:14:24.268Z,25.62
2022-09-30T02:17:16.436Z,25.59
2022-09-30T02:20:08.114Z,25.62
2022-09-30T02:23:03.958Z,25.59
2022-09-30T02:25:57.178Z,25.58
2022-09-30T02:28:49.193Z,25.58
2022-09-30T02:31:41.736Z,25.58
2022-09-30T02:34:33.802Z,25.58
2022-09-30T02:37:25.654Z,25.58
2022-09-30T02:40:18.303Z,25.58
2022-09-30T02:43:07.153Z,25.55
2022-09-30T02:46:04.255Z,25.58
2022-09-30T02:48:59.019Z,25.56
2022-09-30T02:51:59.479Z,25.55
2022-09-30T02:54:53.346Z,25.54
2022-09-30T02:57:50.213Z,25.55
2022-09-30T03:00:38.799Z,25.55
2022-09-30T03:03:30.297Z,25.55
2022-09-30T03:06:19.640Z,25.55
2022-09-30T03:09:11.949Z,25.55
2022-09-30T03:12:08.400Z,25.54
2022-09-30T03:15:20.541Z,25.55
2022-09-30T03:18:18.911Z,25.53
2022-09-30T03:21:18.435Z,25.54
2022-09-30T03:24:29.717Z,25.53
2022-09-30T03:27:27.106Z,25.53
2022-09-30T03:30:20.066Z,25.54
2022-09-30T03:33:15.645Z,25.52
2022-09-30T03:36:10.649Z,25.52
2022-09-30T03:39:03.332Z,25.52
2022-09-30T03:41:56.570Z,25.52
2022-09-30T03:44:49.288Z,25.52
2022-09-30T03:47:42.542Z,25.53
2022-09-30T03:50:33.695Z,25.54
2022-09-30T03:53:22.284Z,25.55
2022-09-30T03:56:10.839Z,25.55
2022-09-30T03:58:59.453Z,25.55
2022-09-30T04:01:48.000Z,25.53
2022-09-30T04:04:36.588Z,25.52
2022-09-30T04:07:26.635Z,25.54
2022-09-30T04:10:15.049Z,25.56
2022-09-30T04:13:03.854Z,25.58
2022-09-30T04:15:56.408Z,25.68
2022-09-30T04:18:44.943Z,25.63
2022-09-30T04:21:33.361Z,25.63
2022-09-30T04:24:23.988Z,25.66
2022-09-30T04:27:12.497Z,25.69
2022-09-30T04:30:00.909Z,25.70
2022-09-30T04:32:50.118Z,25.64
2022-09-30T04:35:39.203Z,25.68
2022-09-30T04:38:28.290Z,25.68
2022-09-30T04:41:19.194Z,25.67
2022-09-30T04:44:07.625Z,25.67
2022-09-30T04:46:56.141Z,25.69
2022-09-30T04:49:44.601Z,25.67
2022-09-30T04:52:33.130Z,25.65
2022-09-30T04:55:21.629Z,25.66
2022-09-30T04:58:11.661Z,25.67
2022-09-30T05:01:06.946Z,25.68
2022-09-30T05:03:55.711Z,25.66
2022-09-30T05:06:44.229Z,25.68
2022-09-30T05:09:32.766Z,25.69
2022-09-30T05:12:21.262Z,25.72
2022-09-30T05:15:11.851Z,25.70
2022-09-30T05:18:00.338Z,25.72
2022-09-30T05:20:52.388Z,25.70
2022-09-30T05:23:40.861Z,25.71
2022-09-30T05:26:29.343Z,25.70
2022-09-30T05:29:17.846Z,25.69
2022-09-30T05:32:07.811Z,25.67
2022-09-30T05:34:56.443Z,25.65
2022-09-30T05:37:44.837Z,25.65
2022-09-30T05:40:33.863Z,25.61
2022-09-30T05:43:23.863Z,25.61
2022-09-30T05:46:12.875Z,25.64
2022-09-30T05:49:02.723Z,25.60
2022-09-30T05:51:53.273Z,25.60
2022-09-30T05:54:42.453Z,25.60
2022-09-30T05:57:30.987Z,25.60
2022-09-30T06:00:20.436Z,25.62
2022-09-30T06:03:11.737Z,25.62
2022-09-30T06:06:01.808Z,25.60
2022-09-30T06:08:50.615Z,25.59
2022-09-30T06:11:39.070Z,25.58
2022-09-30T06:14:28.854Z,25.61
2022-09-30T06:17:19.239Z,25.62
2022-09-30T06:20:08.626Z,25.58
2022-09-30T06:23:00.668Z,25.61
2022-09-30T06:25:51.993Z,25.62
2022-09-30T06:28:40.720Z,25.62
2022-09-30T06:31:30.979Z,25.62
2022-09-30T06:34:19.512Z,25.61
2022-09-30T06:37:07.982Z,25.62
2022-09-30T06:39:57.776Z,25.59
2022-09-30T06:42:46.233Z,25.60
2022-09-30T06:45:35.678Z,25.60
2022-09-30T06:48:34.549Z,25.59
2022-09-30T06:51:27.128Z,25.58
2022-09-30T06:54:15.608Z,25.61
2022-09-30T06:57:05.463Z,25.59
2022-09-30T06:59:54.442Z,25.58
2022-09-30T07:02:42.884Z,25.57
2022-09-30T07:05:31.394Z,25.60
2022-09-30T07:08:19.951Z,25.59
2022-09-30T07:11:12.728Z,25.59
2022-09-30T07:14:04.250Z,25.61
2022-09-30T07:16:53.718Z,25.58
2022-09-30T07:19:42.297Z,25.58
2022-09-30T07:22:31.976Z,25.59
2022-09-30T07:25:20.571Z,25.59
2022-09-30T07:28:09.123Z,25.60
2022-09-30T07:31:20.020Z,25.62
2022-09-30T07:34:10.078Z,25.63
2022-09-30T07:36:58.709Z,25.65
2022-09-30T07:39:49.032Z,25.67
2022-09-30T07:42:39.454Z,25.67
2022-09-30T07:45:27.955Z,25.67
2022-09-30T07:48:50.073Z,25.69
2022-09-30T07:51:40.218Z,25.71
2022-09-30T07:54:30.736Z,25.72
2022-09-30T07:57:19.530Z,25.73
2022-09-30T08:00:37.440Z,25.75
2022-09-30T08:03:19.272Z,25.76
2022-09-30T08:06:09.283Z,25.77
2022-09-30T08:08:59.132Z,25.77
2022-09-30T08:11:48.025Z,25.76
2022-09-30T08:14:36.509Z,25.74
2022-09-30T08:17:25.036Z,25.76
2022-09-30T08:20:18.799Z,25.76
2022-09-30T08:23:09.914Z,25.74
2022-09-30T08:26:02.869Z,25.75
2022-09-30T08:28:51.339Z,25.75
2022-09-30T08:31:39.882Z,25.74
2022-09-30T08:34:33.856Z,25.75
2022-09-30T08:37:28.012Z,25.77
2022-09-30T08:40:21.414Z,25.79
2022-09-30T08:43:19.258Z,25.79
2022-09-30T08:46:11.001Z,25.80
2022-09-30T08:49:06.851Z,25.82
2022-09-30T08:51:55.637Z,25.83
2022-09-30T08:54:49.280Z,25.83
2022-09-30T08:57:45.072Z,25.83
2022-09-30T09:00:36.298Z,25.83
2022-09-30T09:03:28.184Z,25.83
2022-09-30T09:06:22.559Z,25.86
2022-09-30T09:09:23.716Z,25.88
2022-09-30T09:12:23.941Z,25.89
2022-09-30T09:15:20.959Z,25.89
2022-09-30T09:18:24.065Z,25.90
2022-09-30T09:21:23.704Z,25.92
2022-09-30T09:24:16.945Z,25.93
2022-09-30T09:27:19.007Z,25.93
2022-09-30T09:30:10.550Z,25.94
2022-09-30T09:33:02.775Z,25.93
2022-09-30T09:35:54.997Z,25.95
2022-09-30T09:38:58.515Z,25.95
2022-09-30T09:41:54.548Z,25.98
2022-09-30T09:44:49.398Z,26.00
2022-09-30T09:47:37.873Z,26.02
2022-09-30T09:50:35.209Z,26.02
2022-09-30T09:53:36.070Z,26.05
2022-09-30T09:56:32.263Z,26.04
2022-09-30T09:59:21.428Z,26.04
2022-09-30T10:02:26.909Z,26.07
2022-09-30T10:05:27.082Z,26.09
2022-09-30T10:08:18.643Z,26.09
2022-09-30T10:11:08.565Z,26.11
2022-09-30T10:13:59.093Z,26.14
2022-09-30T10:16:47.941Z,26.16
2022-09-30T10:19:37.809Z,26.17
2022-09-30T10:22:28.717Z,26.18
2022-09-30T10:25:24.333Z,26.19
2022-09-30T10:28:22.397Z,26.19
2022-09-30T10:31:14.559Z,26.19
2022-09-30T10:34:10.792Z,26.23
2022-09-30T10:37:03.538Z,26.24
2022-09-30T10:39:57.862Z,26.23
2022-09-30T10:42:48.514Z,26.25
2022-09-30T10:45:41.261Z,26.25
2022-09-30T10:48:32.709Z,26.26
2022-09-30T10:51:26.131Z,26.29
2022-09-30T10:54:37.150Z,26.28
2022-09-30T10:57:28.796Z,26.29
2022-09-30T11:00:21.868Z,26.29
2022-09-30T11:03:15.919Z,26.29
2022-09-30T11:06:05.270Z,26.29
2022-09-30T11:08:58.722Z,26.30
2022-09-30T11:11:52.881Z,26.30
2022-09-30T11:14:46.265Z,26.31
2022-09-30T11:17:40.422Z,26.31
2022-09-30T11:20:32.678Z,26.32
2022-09-30T11:23:25.853Z,26.32
2022-09-30T11:26:21.881Z,26.33
2022-09-30T11:29:24.679Z,26.33
2022-09-30T11:32:21.213Z,26.33
2022-09-30T11:35:22.431Z,26.37
2022-09-30T11:38:16.670Z,26.37
2022-09-30T11:41:09.860Z,26.38
2022-09-30T11:44:06.698Z,26.37
2022-09-30T11:47:04.930Z,26.36
2022-09-30T11:50:10.073Z,26.37
2022-09-30T11:53:09.900Z,26.37
2022-09-30T11:56:12.454Z,26.37
2022-09-30T11:59:02.443Z,26.38
2022-09-30T12:01:52.836Z,26.38
2022-09-30T12:04:44.587Z,26.38
2022-09-30T12:07:41.135Z,26.39
2022-09-30T12:10:35.408Z,26.39
2022-09-30T12:13:25.608Z,26.42
2022-09-30T12:16:19.578Z,26.41
2022-09-30T12:19:19.631Z,26.42
2022-09-30T12:22:16.661Z,26.43
2022-09-30T12:25:15.361Z,26.44
2022-09-30T12:28:28.062Z,26.44
2022-09-30T12:31:41.430Z,26.45
2022-09-30T12:34:46.001Z,26.45
2022-09-30T12:37:44.279Z,26.45
2022-09-30T12:40:52.237Z,26.46
2022-09-30T12:44:06.355Z,26.48
2022-09-30T12:47:06.223Z,26.50
2022-09-30T12:49:57.605Z,26.52
2022-09-30T12:52:48.217Z,26.56
2022-09-30T12:55:40.801Z,26.53
2022-09-30T12:58:34.566Z,26.55
2022-09-30T13:01:24.991Z,26.56
2022-09-30T13:04:35.636Z,26.56
2022-09-30T13:07:24.397Z,26.56
2022-09-30T13:10:31.183Z,26.57
2022-09-30T13:13:25.032Z,26.57
2022-09-30T13:16:14.040Z,26.62
2022-09-30T13:19:03.692Z,26.64
2022-09-30T13:21:57.833Z,26.66
2022-09-30T13:25:13.622Z,26.66
2022-09-30T13:28:32.284Z,26.69
2022-09-30T13:31:21.658Z,26.67
2022-09-30T13:34:12.401Z,26.66
2022-09-30T13:37:02.596Z,26.63
2022-09-30T13:39:55.687Z,26.64
2022-09-30T13:42:49.756Z,26.67
2022-09-30T13:45:40.322Z,26.62
2022-09-30T13:48:32.284Z,26.61
2022-09-30T13:51:22.922Z,26.58
2022-09-30T13:54:20.653Z,26.57
2022-09-30T13:57:17.746Z,26.56
2022-09-30T14:00:09.276Z,26.48
2022-09-30T14:03:08.749Z,26.47
2022-09-30T14:06:04.386Z,26.44
2022-09-30T14:09:20.202Z,26.43
2022-09-30T14:12:25.239Z,26.39
2022-09-30T14:15:28.803Z,26.40
2022-09-30T14:18:46.456Z,26.40
2022-09-30T14:21:40.942Z,26.37
2022-09-30T14:24:36.521Z,26.38
2022-09-30T14:27:39.577Z,26.34
2022-09-30T14:30:28.979Z,26.33
2022-09-30T14:33:22.649Z,26.33
2022-09-30T14:36:15.573Z,26.34
2022-09-30T14:39:05.930Z,26.37
2022-09-30T14:41:57.712Z,26.34
2022-09-30T14:44:49.278Z,26.34
2022-09-30T14:47:40.498Z,26.36
2022-09-30T14:50:32.156Z,26.40
2022-09-30T14:53:29.910Z,26.41
2022-09-30T14:56:21.870Z,26.37
2022-09-30T14:59:18.722Z,26.39
2022-09-30T15:02:16.926Z,26.37
2022-09-30T15:05:06.374Z,26.34
2022-09-30T15:07:55.841Z,26.35
2022-09-30T15:10:50.168Z,26.36
2022-09-30T15:13:40.543Z,26.31
2022-09-30T15:16:31.402Z,26.28
2022-09-30T15:19:22.632Z,26.26
2022-09-30T15:22:12.439Z,26.23
2022-09-30T15:25:01.515Z,26.22
2022-09-30T15:27:51.738Z,26.19
2022-09-30T15:30:42.601Z,26.18
2022-09-30T15:33:32.488Z,26.15
2022-09-30T15:36:21.202Z,26.14
2022-09-30T15:39:20.385Z,26.16
2022-09-30T15:42:09.398Z,26.15
2022-09-30T15:45:01.436Z,26.16
2022-09-30T15:47:56.635Z,26.14
2022-09-30T15:50:48.078Z,26.14
2022-09-30T15:53:48.253Z,26.13
2022-09-30T15:56:37.819Z,26.11
2022-09-30T16:00:00.734Z,26.12
2022-09-30T16:02:49.235Z,26.11
2022-09-30T16:05:38.056Z,26.10
2022-09-30T16:08:28.901Z,26.10
2022-09-30T16:11:21.792Z,26.10
2022-09-30T16:14:18.435Z,26.06
2022-09-30T16:17:09.064Z,26.05
2022-09-30T16:19:59.292Z,26.06
2022-09-30T16:22:53.456Z,26.05
2022-09-30T16:25:42.211Z,26.06
2022-09-30T16:28:31.729Z,26.05
2022-09-30T16:31:20.321Z,26.04
2022-09-30T16:34:12.706Z,26.03
2022-09-30T16:37:07.508Z,26.03
2022-09-30T16:39:57.822Z,26.01
2022-09-30T16:42:46.346Z,25.99
2022-09-30T16:45:35.889Z,26.00
2022-09-30T16:48:25.391Z,26.00
2022-09-30T16:51:17.557Z,25.97
2022-09-30T16:54:06.081Z,25.96
2022-09-30T16:56:58.880Z,25.98
2022-09-30T16:59:49.264Z,25.98
2022-09-30T17:02:37.786Z,25.95
2022-09-30T17:05:27.707Z,25.95
2022-09-30T17:08:18.602Z,25.95
2022-09-30T17:11:07.163Z,25.95
2022-09-30T17:13:58.288Z,25.93
2022-09-30T17:16:47.640Z,25.92
2022-09-30T17:19:36.324Z,25.92
2022-09-30T17:22:24.821Z,25.91
2022-09-30T17:25:15.173Z,25.89
2022-09-30T17:28:03.737Z,25.91
2022-09-30T17:30:52.258Z,25.91
2022-09-30T17:33:42.304Z,25.97
2022-09-30T17:36:31.196Z,25.98
2022-09-30T17:39:20.009Z,26.00
2022-09-30T17:42:30.903Z,25.90
2022-09-30T17:45:19.459Z,25.83
2022-09-30T17:48:09.460Z,25.80
2022-09-30T17:50:58.152Z,25.81
2022-09-30T17:53:47.039Z,25.75
2022-09-30T17:56:36.618Z,25.72
2022-09-30T17:59:27.267Z,25.69
2022-09-30T18:02:17.592Z,25.64
2022-09-30T18:05:06.852Z,25.69
2022-09-30T18:08:06.510Z,25.77
2022-09-30T18:10:55.485Z,25.82
2022-09-30T18:13:44.047Z,25.87
2022-09-30T18:16:34.584Z,25.88
2022-09-30T18:19:23.157Z,25.89
2022-09-30T18:22:11.635Z,25.94
2022-09-30T18:25:29.362Z,25.97
2022-09-30T18:28:18.601Z,26.02
2022-09-30T18:31:08.039Z,26.03
2022-09-30T18:33:58.056Z,26.01
2022-09-30T18:36:51.119Z,26.03
2022-09-30T18:39:39.965Z,26.02
2022-09-30T18:42:30.110Z,26.05
2022-09-30T18:45:26.595Z,26.05
2022-09-30T18:48:15.613Z,26.05
2022-09-30T18:51:06.263Z,26.06
2022-09-30T18:53:57.691Z,26.07
2022-09-30T18:56:46.369Z,26.11
2022-09-30T18:59:34.779Z,26.10
2022-09-30T19:02:23.358Z,26.08
2022-09-30T19:05:12.883Z,26.10
2022-09-30T19:08:03.170Z,26.12
2022-09-30T19:10:52.038Z,26.12
2022-09-30T19:13:40.880Z,26.14
2022-09-30T19:16:35.268Z,26.12
2022-09-30T19:19:26.449Z,26.14
2022-09-30T19:22:15.082Z,26.17
2022-09-30T19:25:05.647Z,26.16
2022-09-30T19:27:55.699Z,26.14
2022-09-30T19:30:45.214Z,26.13
2022-09-30T19:33:36.773Z,26.14
2022-09-30T19:36:39.547Z,26.15
2022-09-30T19:39:43.927Z,26.15
2022-09-30T19:42:37.780Z,26.19
2022-09-30T19:45:27.240Z,26.21
2022-09-30T19:48:15.882Z,26.25
2022-09-30T19:51:06.952Z,26.27
2022-09-30T19:54:04.430Z,26.33
2022-09-30T19:56:55.385Z,26.28
2022-09-30T19:59:45.234Z,26.31
2022-09-30T20:02:33.844Z,26.26
2022-09-30T20:05:23.630Z,26.24
2022-09-30T20:08:15.138Z,26.23
2022-09-30T20:11:05.015Z,26.27
2022-09-30T20:14:14.976Z,26.28
2022-09-30T20:17:03.849Z,26.28
2022-09-30T20:20:06.244Z,26.31
2022-09-30T20:22:54.746Z,26.29
2022-09-30T20:25:43.605Z,26.28
2022-09-30T20:28:32.135Z,26.29
2022-09-30T20:31:20.810Z,26.30
2022-09-30T20:34:11.670Z,26.31
2022-09-30T20:37:01.308Z,26.31
2022-09-30T20:39:49.738Z,26.30
2022-09-30T20:42:40.013Z,26.35
2022-09-30T20:45:28.541Z,26.34
2022-09-30T20:48:17.048Z,26.35
2022-09-30T20:51:08.851Z,26.36
2022-09-30T20:53:58.388Z,26.35
2022-09-30T20:57:06.353Z,26.35
2022-09-30T20:59:55.349Z,26.35
2022-09-30T21:02:43.906Z,26.36
2022-09-30T21:05:32.682Z,26.38
2022-09-30T21:08:23.081Z,26.36
2022-09-30T21:11:12.457Z,26.34
2022-09-30T21:14:00.912Z,26.35
2022-09-30T21:16:49.335Z,26.35
2022-09-30T21:19:38.072Z,26.34
2022-09-30T21:22:27.323Z,26.32
2022-09-30T21:25:17.392Z,26.29
2022-09-30T21:28:06.056Z,26.28
2022-09-30T21:30:55.352Z,26.30
2022-09-30T21:33:44.748Z,26.27
2022-09-30T21:36:36.773Z,26.23
2022-09-30T21:39:25.226Z,26.22
2022-09-30T21:42:17.598Z,26.19
2022-09-30T21:45:07.431Z,26.14
2022-09-30T21:48:05.020Z,26.13
2022-09-30T21:50:53.532Z,26.08
2022-09-30T21:53:42.321Z,26.09
2022-09-30T21:56:30.844Z,26.10
2022-09-30T21:59:20.631Z,26.12
2022-09-30T22:02:09.242Z,26.11
2022-09-30T22:04:57.758Z,26.08
2022-09-30T22:07:46.194Z,26.07
2022-09-30T22:10:34.623Z,26.10
2022-09-30T22:13:23.076Z,26.09
2022-09-30T22:16:15.270Z,26.12
2022-09-30T22:19:07.391Z,26.08
2022-09-30T22:21:55.879Z,26.09
2022-09-30T22:24:44.326Z,26.07
2022-09-30T22:27:34.109Z,26.04
2022-09-30T22:30:22.663Z,26.03
2022-09-30T22:33:30.192Z,26.04
2022-09-30T22:36:36.776Z,26.03
2022-09-30T22:39:25.703Z,26.00
2022-09-30T22:42:14.299Z,26.01
2022-09-30T22:45:03.552Z,26.04
2022-09-30T22:47:52.854Z,26.01
2022-09-30T22:50:43.076Z,26.00
2022-09-30T22:53:31.509Z,26.02
2022-09-30T22:56:20.137Z,26.01
2022-09-30T22:59:08.549Z,26.01
2022-09-30T23:01:57.346Z,25.97
2022-09-30T23:04:45.878Z,25.97
2022-09-30T23:07:35.744Z,25.99
2022-09-30T23:10:24.243Z,25.99
2022-09-30T23:13:13.363Z,25.99
2022-09-30T23:16:02.758Z,25.97
2022-09-30T23:18:51.263Z,25.98
2022-09-30T23:21:40.055Z,25.97
2022-09-30T23:24:30.376Z,25.98
2022-09-30T23:27:18.901Z,26.00
2022-09-30T23:30:08.529Z,26.01
2022-09-30T23:32:58.097Z,26.02
2022-09-30T23:35:47.028Z,26.00
2022-09-30T23:38:35.636Z,25.99
2022-09-30T23:41:25.538Z,25.96
2022-09-30T23:44:15.539Z,25.98
2022-09-30T23:47:19.391Z,25.94
2022-09-30T23:50:09.250Z,25.91
2022-09-30T23:52:58.608Z,25.91
2022-09-30T23:55:55.514Z,25.92
2022-09-30T23:58:45.947Z,25.94
